Time;durP1;ratioP1;P1;durP2;ratioP2;P2;SDS_P1;SDS_P2;PMS_P1;PMS_P2;Temp;Humidity;BMP_temperature;BMP_pressure;BME280_temperature;BME280_humidity;BME280_pressure;Samples;Min_cycle;Max_cycle;Signal;HPM_P1;HPM_P2
2023/03/13 00:01:14;;;;;;;14.13;4.10;;;;;;;;;;5051254;28;20229;-77
2023/03/13 00:03:45;;;;;;;15.07;4.30;;;;;;;;;;5063807;28;20218;-75
2023/03/13 00:06:11;;;;;;;11.00;3.67;;;;;;;;;;5047862;28;20305;-78
2023/03/13 00:08:38;;;;;;;11.73;3.43;;;;;;;;;;5051453;28;20231;-77
2023/03/13 00:11:05;;;;;;;12.17;3.33;;;;;;;;;;5047297;28;20242;-78
2023/03/13 00:13:31;;;;;;;10.03;3.07;;;;;;;;;;5049660;28;20371;-77
2023/03/13 00:16:01;;;;;;;13.53;3.73;;;;;;;;;;5050602;28;20597;-77
2023/03/13 00:18:27;;;;;;;10.53;3.57;;;;;;;;;;5051025;28;20190;-77
2023/03/13 00:20:59;;;;;;;11.70;3.47;;;;;;;;;;5051075;28;20189;-78
2023/03/13 00:23:25;;;;;;;12.57;3.87;;;;;;;;;;5047357;28;20217;-77
2023/03/13 00:25:59;;;;;;;13.67;3.87;;;;;;;;;;5048030;28;20190;-78
2023/03/13 00:28:28;;;;;;;10.73;3.70;;;;;;;;;;5047910;28;20185;-78
2023/03/13 00:31:00;;;;;;;12.47;3.20;;;;;;;;;;5044679;28;20186;-78
2023/03/13 00:33:27;;;;;;;10.60;3.43;;;;;;;;;;5034349;28;20210;-78
2023/03/13 00:35:57;;;;;;;10.07;3.63;;;;;;;;;;5045172;28;20204;-78
2023/03/13 00:38:23;;;;;;;10.37;3.40;;;;;;;;;;5050604;28;20649;-78
2023/03/13 00:40:49;;;;;;;10.13;3.37;;;;;;;;;;5050689;28;20189;-78
2023/03/13 00:43:15;;;;;;;11.17;3.73;;;;;;;;;;5010631;28;20214;-78
2023/03/13 00:45:41;;;;;;;8.97;3.30;;;;;;;;;;5052947;28;20182;-78
2023/03/13 00:48:07;;;;;;;11.90;3.50;;;;;;;;;;5038061;28;20201;-77
2023/03/13 00:50:33;;;;;;;10.13;3.40;;;;;;;;;;5033099;28;20546;-78
2023/03/13 00:52:59;;;;;;;11.20;3.70;;;;;;;;;;5047305;28;20206;-76
2023/03/13 00:55:28;;;;;;;9.63;3.40;;;;;;;;;;5051710;28;20221;-76
2023/03/13 00:57:54;;;;;;;11.37;3.20;;;;;;;;;;5046942;28;20191;-77
2023/03/13 01:00:20;;;;;;;9.57;3.10;;;;;;;;;;5045714;28;20205;-77
2023/03/13 01:02:46;;;;;;;11.20;3.20;;;;;;;;;;5031090;28;20232;-77
2023/03/13 01:05:12;;;;;;;9.63;2.93;;;;;;;;;;5050564;28;20180;-79
2023/03/13 01:07:39;;;;;;;9.43;3.23;;;;;;;;;;5056351;28;20264;-78
2023/03/13 01:10:06;;;;;;;13.13;4.90;;;;;;;;;;5031566;28;20744;-77
2023/03/13 01:12:32;;;;;;;14.43;4.80;;;;;;;;;;5029095;28;20262;-77
2023/03/13 01:14:58;;;;;;;13.97;4.60;;;;;;;;;;5048907;28;20214;-77
2023/03/13 01:17:24;;;;;;;14.63;4.87;;;;;;;;;;5049883;28;20200;-78
2023/03/13 01:19:50;;;;;;;11.53;3.30;;;;;;;;;;5045177;28;20265;-78
2023/03/13 01:22:17;;;;;;;10.10;3.10;;;;;;;;;;5045906;28;20205;-77
2023/03/13 01:24:43;;;;;;;8.77;3.10;;;;;;;;;;5047748;28;20200;-77
2023/03/13 01:27:09;;;;;;;13.53;3.30;;;;;;;;;;5050764;28;20202;-78
2023/03/13 01:29:35;;;;;;;11.43;3.20;;;;;;;;;;5049957;28;20166;-77
2023/03/13 01:32:01;;;;;;;10.90;3.20;;;;;;;;;;5049361;28;20734;-77
2023/03/13 01:34:27;;;;;;;10.17;3.10;;;;;;;;;;5045001;28;20205;-76
2023/03/13 01:36:53;;;;;;;9.73;2.77;;;;;;;;;;5046591;28;20267;-76
2023/03/13 01:39:20;;;;;;;9.17;2.90;;;;;;;;;;5053319;28;20550;-78
2023/03/13 01:41:46;;;;;;;10.53;3.17;;;;;;;;;;5046040;28;20511;-78
2023/03/13 01:44:23;;;;;;;8.63;3.03;;;;;;;;;;5043092;28;20205;-78
2023/03/13 01:46:50;;;;;;;6.33;2.90;;;;;;;;;;5047085;28;20232;-78
2023/03/13 01:49:32;;;;;;;9.93;3.00;;;;;;;;;;5048363;28;20260;-79
2023/03/13 01:52:16;;;;;;;8.83;2.43;;;;;;;;;;5033731;28;20198;-78
2023/03/13 01:55:11;;;;;;;9.50;3.07;;;;;;;;;;5025450;28;20247;-78
2023/03/13 01:57:49;;;;;;;11.33;3.10;;;;;;;;;;5048203;28;20260;-79
2023/03/13 02:00:19;;;;;;;8.70;2.90;;;;;;;;;;5044645;28;20181;-79
2023/03/13 02:02:47;;;;;;;9.43;2.97;;;;;;;;;;5046733;28;20209;-79
2023/03/13 02:05:14;;;;;;;10.40;3.00;;;;;;;;;;5046706;28;20182;-78
2023/03/13 02:07:42;;;;;;;7.70;2.50;;;;;;;;;;5047570;28;20189;-79
2023/03/13 02:10:09;;;;;;;10.90;2.90;;;;;;;;;;5042650;28;20178;-79
2023/03/13 02:12:38;;;;;;;9.47;2.73;;;;;;;;;;5046445;28;20319;-78
2023/03/13 02:15:18;;;;;;;10.77;2.77;;;;;;;;;;5044349;28;20210;-78
2023/03/13 02:17:45;;;;;;;11.93;3.23;;;;;;;;;;5048050;28;20189;-78
2023/03/13 02:20:12;;;;;;;10.77;2.60;;;;;;;;;;5063891;28;20197;-79
2023/03/13 02:22:39;;;;;;;8.33;2.60;;;;;;;;;;5037186;28;20201;-79
2023/03/13 02:25:08;;;;;;;9.70;2.37;;;;;;;;;;5065127;28;20178;-79
2023/03/13 02:27:35;;;;;;;9.13;2.63;;;;;;;;;;5046926;28;20654;-78
2023/03/13 02:30:03;;;;;;;10.73;2.80;;;;;;;;;;5045883;28;20550;-78
2023/03/13 02:32:30;;;;;;;9.03;2.50;;;;;;;;;;5048152;28;20220;-79
2023/03/13 02:34:59;;;;;;;11.30;2.63;;;;;;;;;;5048573;28;20178;-78
2023/03/13 02:37:26;;;;;;;10.13;2.60;;;;;;;;;;5055992;28;20186;-79
2023/03/13 02:39:54;;;;;;;8.50;2.67;;;;;;;;;;5048712;28;20384;-78
2023/03/13 02:42:21;;;;;;;6.67;2.70;;;;;;;;;;5044039;28;20202;-78
2023/03/13 02:44:48;;;;;;;7.93;2.60;;;;;;;;;;5043263;28;20208;-78
2023/03/13 02:47:18;;;;;;;9.80;2.70;;;;;;;;;;5047937;28;20184;-79
2023/03/13 02:49:44;;;;;;;9.50;2.57;;;;;;;;;;5048883;28;20170;-78
2023/03/13 02:52:10;;;;;;;8.00;2.57;;;;;;;;;;5047822;28;20221;-78
2023/03/13 02:54:38;;;;;;;8.87;2.50;;;;;;;;;;5048151;28;20868;-79
2023/03/13 02:57:05;;;;;;;7.27;2.40;;;;;;;;;;5035484;28;20174;-79
2023/03/13 02:59:31;;;;;;;6.40;2.07;;;;;;;;;;5031394;28;20216;-78
2023/03/13 03:01:58;;;;;;;9.67;2.50;;;;;;;;;;5045467;28;20204;-79
2023/03/13 03:04:25;;;;;;;8.63;2.53;;;;;;;;;;5047534;28;20197;-78
2023/03/13 03:06:54;;;;;;;7.80;2.50;;;;;;;;;;5047776;28;20197;-78
2023/03/13 03:09:21;;;;;;;5.57;2.30;;;;;;;;;;5047630;28;20554;-78
2023/03/13 03:11:49;;;;;;;7.70;2.30;;;;;;;;;;5029062;28;20203;-78
2023/03/13 03:14:16;;;;;;;7.30;2.50;;;;;;;;;;5041166;28;20209;-78
2023/03/13 03:16:44;;;;;;;7.77;2.67;;;;;;;;;;5059706;28;20177;-79
2023/03/13 03:19:11;;;;;;;8.83;2.33;;;;;;;;;;5048653;28;20200;-78
2023/03/13 03:21:37;;;;;;;5.67;2.27;;;;;;;;;;5046607;28;20228;-78
2023/03/13 03:24:03;;;;;;;8.07;2.40;;;;;;;;;;5057107;28;20221;-78
2023/03/13 03:26:29;;;;;;;10.17;2.37;;;;;;;;;;5020097;28;20182;-78
2023/03/13 03:28:56;;;;;;;5.97;2.07;;;;;;;;;;5062128;28;20170;-78
2023/03/13 03:31:22;;;;;;;8.63;2.40;;;;;;;;;;5067702;28;20687;-78
2023/03/13 03:33:48;;;;;;;6.63;2.30;;;;;;;;;;5031476;28;20210;-79
2023/03/13 03:36:18;;;;;;;8.47;2.43;;;;;;;;;;5048837;28;20190;-78
2023/03/13 03:38:45;;;;;;;6.00;2.37;;;;;;;;;;5051180;28;20184;-78
2023/03/13 03:41:14;;;;;;;7.70;2.50;;;;;;;;;;5034140;28;20189;-78
2023/03/13 03:43:41;;;;;;;7.47;2.00;;;;;;;;;;5047045;28;20245;-78
2023/03/13 03:46:08;;;;;;;7.03;1.97;;;;;;;;;;5035350;28;20222;-78
2023/03/13 03:48:34;;;;;;;10.93;2.37;;;;;;;;;;5051435;28;20234;-77
2023/03/13 03:51:03;;;;;;;7.57;2.30;;;;;;;;;;5026469;28;20189;-78
2023/03/13 03:53:31;;;;;;;5.37;2.07;;;;;;;;;;5048164;28;20292;-77
2023/03/13 03:55:57;;;;;;;5.13;2.20;;;;;;;;;;5050780;28;20200;-78
2023/03/13 03:58:24;;;;;;;10.00;2.00;;;;;;;;;;5034746;28;20182;-78
2023/03/13 04:01:13;;;;;;;6.30;2.13;;;;;;;;;;5050697;28;20649;-77
2023/03/13 04:03:40;;;;;;;5.23;1.97;;;;;;;;;;5047425;28;20306;-78
2023/03/13 04:06:08;;;;;;;6.57;2.13;;;;;;;;;;5031337;28;20206;-78
2023/03/13 04:08:34;;;;;;;6.43;2.20;;;;;;;;;;5063409;28;20186;-78
2023/03/13 04:11:01;;;;;;;6.17;2.00;;;;;;;;;;5050678;28;20213;-78
2023/03/13 04:13:29;;;;;;;5.33;2.10;;;;;;;;;;5048820;28;20635;-78
2023/03/13 04:15:57;;;;;;;6.03;1.83;;;;;;;;;;5050671;28;20190;-78
2023/03/13 04:18:24;;;;;;;7.40;2.07;;;;;;;;;;5030732;28;20213;-78
2023/03/13 04:20:50;;;;;;;4.53;1.50;;;;;;;;;;5048744;28;20182;-78
2023/03/13 04:23:16;;;;;;;5.20;1.90;;;;;;;;;;5049420;28;20271;-78
2023/03/13 04:25:42;;;;;;;5.73;1.77;;;;;;;;;;5049448;28;20646;-79
2023/03/13 04:28:11;;;;;;;6.43;2.10;;;;;;;;;;5047835;28;20166;-78
2023/03/13 04:30:42;;;;;;;3.83;1.97;;;;;;;;;;5048524;28;20166;-78
2023/03/13 04:33:14;;;;;;;6.07;2.10;;;;;;;;;;5046424;28;20202;-78
2023/03/13 04:35:45;;;;;;;5.33;1.80;;;;;;;;;;5049827;28;20209;-78
2023/03/13 04:38:32;;;;;;;7.47;1.93;;;;;;;;;;5035098;28;20328;-77
2023/03/13 04:41:25;;;;;;;6.00;1.67;;;;;;;;;;5050630;28;20703;-78
2023/03/13 04:44:27;;;;;;;4.87;1.67;;;;;;;;;;5028603;28;20214;-77
2023/03/13 04:47:04;;;;;;;3.17;1.30;;;;;;;;;;5021334;28;20204;-77
2023/03/13 04:49:45;;;;;;;4.43;1.57;;;;;;;;;;5046245;28;20193;-78
2023/03/13 04:52:30;;;;;;;4.03;1.60;;;;;;;;;;5044035;28;20192;-78
2023/03/13 04:55:24;;;;;;;2.93;1.60;;;;;;;;;;5049734;28;20182;-79
2023/03/13 04:58:02;;;;;;;3.77;1.70;;;;;;;;;;5031479;28;20208;-78
2023/03/13 05:00:48;;;;;;;4.43;1.67;;;;;;;;;;5020106;28;20304;-78
2023/03/13 05:03:25;;;;;;;3.27;1.60;;;;;;;;;;5047858;28;20209;-78
2023/03/13 05:06:04;;;;;;;3.30;1.50;;;;;;;;;;5050260;28;20185;-78
2023/03/13 05:08:53;;;;;;;6.07;1.77;;;;;;;;;;5048576;28;20808;-78
2023/03/13 05:11:32;;;;;;;5.53;1.60;;;;;;;;;;5051254;28;20181;-78
2023/03/13 05:13:58;;;;;;;2.67;1.57;;;;;;;;;;5063362;28;20206;-78
2023/03/13 05:16:44;;;;;;;2.77;1.30;;;;;;;;;;5046940;28;20194;-78
2023/03/13 05:19:39;;;;;;;3.47;1.57;;;;;;;;;;5066367;28;20688;-78
2023/03/13 05:22:24;;;;;;;3.77;1.47;;;;;;;;;;5042741;28;20214;-78
2023/03/13 05:25:14;;;;;;;2.67;1.40;;;;;;;;;;5047897;28;20695;-78
2023/03/13 05:28:01;;;;;;;4.03;1.40;;;;;;;;;;5013553;28;20237;-78
2023/03/13 05:30:56;;;;;;;6.10;1.80;;;;;;;;;;5018762;28;20190;-78
2023/03/13 05:33:33;;;;;;;3.50;1.60;;;;;;;;;;5049387;28;20248;-79
2023/03/13 05:36:09;;;;;;;3.80;1.50;;;;;;;;;;5059786;28;20178;-77
2023/03/13 05:39:07;;;;;;;3.27;1.50;;;;;;;;;;5023567;28;20197;-78
2023/03/13 05:42:00;;;;;;;5.17;1.70;;;;;;;;;;5046754;28;20198;-78
2023/03/13 05:44:49;;;;;;;6.20;1.80;;;;;;;;;;5034096;28;20214;-79
2023/03/13 05:47:31;;;;;;;2.17;1.67;;;;;;;;;;5054733;28;20197;-78
2023/03/13 05:49:57;;;;;;;2.60;1.57;;;;;;;;;;5043681;28;20181;-78
2023/03/13 05:52:32;;;;;;;2.83;1.40;;;;;;;;;;5056243;28;20611;-78
2023/03/13 05:55:10;;;;;;;3.97;1.53;;;;;;;;;;5048662;28;20699;-78
2023/03/13 05:58:05;;;;;;;4.07;1.70;;;;;;;;;;4960554;28;20193;-78
2023/03/13 06:01:12;;;;;;;6.03;1.77;;;;;;;;;;5046406;28;20186;-78
2023/03/13 06:03:41;;;;;;;5.43;1.60;;;;;;;;;;5044044;28;20213;-78
2023/03/13 06:06:09;;;;;;;3.23;1.77;;;;;;;;;;5033675;28;20227;-78
2023/03/13 06:08:41;;;;;;;3.27;1.50;;;;;;;;;;5044700;28;20207;-78
2023/03/13 06:11:07;;;;;;;2.67;1.40;;;;;;;;;;5045363;28;20182;-78
2023/03/13 06:13:33;;;;;;;3.17;1.67;;;;;;;;;;5030606;28;20208;-78
2023/03/13 06:16:06;;;;;;;2.93;1.40;;;;;;;;;;5044639;28;20193;-78
2023/03/13 06:18:40;;;;;;;5.87;1.50;;;;;;;;;;5033042;28;20653;-76
2023/03/13 06:21:06;;;;;;;2.70;1.60;;;;;;;;;;5047314;28;20182;-78
2023/03/13 06:23:32;;;;;;;2.30;1.30;;;;;;;;;;5050959;28;20585;-79
2023/03/13 06:26:00;;;;;;;2.73;1.57;;;;;;;;;;5052523;28;20249;-79
2023/03/13 06:28:26;;;;;;;2.07;1.30;;;;;;;;;;5042275;28;20210;-78
2023/03/13 06:30:52;;;;;;;4.13;1.40;;;;;;;;;;5063058;28;20182;-77
2023/03/13 06:33:18;;;;;;;2.03;1.37;;;;;;;;;;5043889;28;20217;-77
2023/03/13 06:35:44;;;;;;;2.13;1.30;;;;;;;;;;5040896;28;20209;-77
2023/03/13 06:38:10;;;;;;;5.00;1.80;;;;;;;;;;5040290;28;20217;-76
2023/03/13 06:40:37;;;;;;;3.40;1.80;;;;;;;;;;5049861;28;20173;-77
2023/03/13 06:43:03;;;;;;;4.27;2.27;;;;;;;;;;5056516;28;20231;-77
2023/03/13 06:45:29;;;;;;;7.13;2.17;;;;;;;;;;5056999;28;20209;-80
2023/03/13 06:47:55;;;;;;;5.27;3.30;;;;;;;;;;5054409;28;20192;-76
2023/03/13 06:50:22;;;;;;;5.70;3.10;;;;;;;;;;5045812;28;20174;-80
2023/03/13 06:52:49;;;;;;;5.67;3.60;;;;;;;;;;5051187;28;20205;-80
2023/03/13 06:55:15;;;;;;;4.63;2.83;;;;;;;;;;5050764;28;21395;-80
2023/03/13 06:57:41;;;;;;;6.17;4.20;;;;;;;;;;5065828;28;20235;-79
2023/03/13 07:00:10;;;;;;;7.47;2.93;;;;;;;;;;5033246;28;20227;-79
2023/03/13 07:02:36;;;;;;;5.20;3.20;;;;;;;;;;5045330;28;20297;-79
2023/03/13 07:05:04;;;;;;;4.47;2.63;;;;;;;;;;5042820;28;20181;-77
2023/03/13 07:07:32;;;;;;;3.53;2.40;;;;;;;;;;5042596;28;20178;-77
2023/03/13 07:09:58;;;;;;;5.20;2.77;;;;;;;;;;5047799;28;20638;-77
2023/03/13 07:12:24;;;;;;;5.03;3.40;;;;;;;;;;5046839;28;20193;-77
2023/03/13 07:14:51;;;;;;;3.30;2.40;;;;;;;;;;5047930;28;20240;-77
2023/03/13 07:17:17;;;;;;;4.00;2.50;;;;;;;;;;5045332;28;20186;-78
2023/03/13 07:19:43;;;;;;;2.10;1.60;;;;;;;;;;5045049;28;20892;-77
2023/03/13 07:22:09;;;;;;;3.23;1.43;;;;;;;;;;5035749;28;20182;-78
2023/03/13 07:24:35;;;;;;;1.63;1.30;;;;;;;;;;5045311;28;20205;-77
2023/03/13 07:27:01;;;;;;;2.67;1.50;;;;;;;;;;5049684;28;20197;-77
2023/03/13 07:29:28;;;;;;;3.73;1.80;;;;;;;;;;5044394;28;20181;-77
2023/03/13 07:31:54;;;;;;;2.87;1.30;;;;;;;;;;5046036;28;20290;-78
2023/03/13 07:34:20;;;;;;;2.80;1.50;;;;;;;;;;5039458;28;20214;-78
2023/03/13 07:36:46;;;;;;;1.80;1.50;;;;;;;;;;5043312;28;20206;-78
2023/03/13 07:39:12;;;;;;;2.40;1.43;;;;;;;;;;5050584;28;20299;-78
2023/03/13 07:41:38;;;;;;;3.20;1.43;;;;;;;;;;5050281;28;20189;-78
2023/03/13 07:44:05;;;;;;;2.20;1.47;;;;;;;;;;5036928;28;20206;-78
2023/03/13 07:46:31;;;;;;;2.73;1.60;;;;;;;;;;5058927;28;20231;-77
2023/03/13 07:48:57;;;;;;;1.23;1.13;;;;;;;;;;5035547;28;20224;-78
2023/03/13 07:51:25;;;;;;;1.93;1.30;;;;;;;;;;5031710;28;20186;-78
2023/03/13 07:53:51;;;;;;;1.30;1.10;;;;;;;;;;5048260;28;20197;-78
2023/03/13 07:56:18;;;;;;;2.27;1.40;;;;;;;;;;5048882;28;20239;-78
2023/03/13 07:58:45;;;;;;;2.17;1.20;;;;;;;;;;5051893;28;20178;-78
2023/03/13 08:01:16;;;;;;;1.97;1.40;;;;;;;;;;5039098;28;20202;-78
2023/03/13 08:03:43;;;;;;;1.77;1.40;;;;;;;;;;5031823;28;20246;-78
2023/03/13 08:06:10;;;;;;;1.67;1.30;;;;;;;;;;5040027;28;20186;-78
2023/03/13 08:08:37;;;;;;;2.60;1.20;;;;;;;;;;5038433;28;20174;-78
2023/03/13 08:11:14;;;;;;;1.87;1.10;;;;;;;;;;5048661;28;20806;-78
2023/03/13 08:13:40;;;;;;;2.77;1.50;;;;;;;;;;5038945;28;20212;-78
2023/03/13 08:16:08;;;;;;;2.77;1.30;;;;;;;;;;5050592;28;20559;-78
2023/03/13 08:18:35;;;;;;;2.67;1.60;;;;;;;;;;5044718;28;20186;-78
2023/03/13 08:21:06;;;;;;;1.67;1.40;;;;;;;;;;5042465;28;20183;-78
2023/03/13 08:23:32;;;;;;;1.97;1.30;;;;;;;;;;5063748;28;20584;-78
2023/03/13 08:26:18;;;;;;;2.30;1.80;;;;;;;;;;5044623;28;20252;-78
2023/03/13 08:28:45;;;;;;;3.63;1.93;;;;;;;;;;5039145;28;20653;-78
2023/03/13 08:31:12;;;;;;;1.93;1.57;;;;;;;;;;5053153;28;20174;-78
2023/03/13 08:33:39;;;;;;;2.07;1.60;;;;;;;;;;5038818;28;20206;-78
2023/03/13 08:36:21;;;;;;;2.07;1.33;;;;;;;;;;5029500;28;20270;-78
2023/03/13 08:38:48;;;;;;;2.13;1.40;;;;;;;;;;5052664;28;20181;-78
2023/03/13 08:41:15;;;;;;;2.07;1.30;;;;;;;;;;5045968;28;20187;-78
2023/03/13 08:43:42;;;;;;;1.60;1.50;;;;;;;;;;5040244;28;20214;-78
2023/03/13 08:46:08;;;;;;;3.27;1.50;;;;;;;;;;5039830;28;20183;-78
2023/03/13 08:48:34;;;;;;;2.70;1.50;;;;;;;;;;5061909;28;20175;-78
2023/03/13 08:51:06;;;;;;;5.40;3.70;;;;;;;;;;5049553;28;20695;-78
2023/03/13 08:53:33;;;;;;;6.07;4.10;;;;;;;;;;5049663;28;20718;-78
2023/03/13 08:55:59;;;;;;;6.10;3.00;;;;;;;;;;5040572;28;20197;-78
2023/03/13 08:58:25;;;;;;;2.60;1.70;;;;;;;;;;5047268;28;20186;-78
2023/03/13 09:00:51;;;;;;;4.10;2.10;;;;;;;;;;5051524;28;20189;-78
2023/03/13 09:03:17;;;;;;;2.60;1.80;;;;;;;;;;5051212;28;20201;-78
2023/03/13 09:05:46;;;;;;;2.03;1.60;;;;;;;;;;5037406;28;20223;-78
2023/03/13 09:08:13;;;;;;;1.87;1.63;;;;;;;;;;5049431;28;20220;-78
2023/03/13 09:10:39;;;;;;;2.57;2.00;;;;;;;;;;5038591;28;20680;-78
2023/03/13 09:13:05;;;;;;;4.47;1.90;;;;;;;;;;5033582;28;20222;-78
2023/03/13 09:15:31;;;;;;;1.90;1.50;;;;;;;;;;5036037;28;20238;-78
2023/03/13 09:17:57;;;;;;;2.13;1.47;;;;;;;;;;5051837;28;20277;-78
2023/03/13 09:20:23;;;;;;;2.37;1.60;;;;;;;;;;5048214;28;20198;-78
2023/03/13 09:22:53;;;;;;;3.03;1.83;;;;;;;;;;5040511;28;20432;-78
2023/03/13 09:25:19;;;;;;;5.57;1.80;;;;;;;;;;5050955;28;20189;-78
2023/03/13 09:27:45;;;;;;;3.47;1.80;;;;;;;;;;5042434;28;20641;-78
2023/03/13 09:30:12;;;;;;;3.23;1.90;;;;;;;;;;5045508;28;20216;-78
2023/03/13 09:32:38;;;;;;;2.33;1.80;;;;;;;;;;5047058;28;20533;-78
2023/03/13 09:35:04;;;;;;;2.30;1.70;;;;;;;;;;5046598;28;20646;-78
2023/03/13 09:37:30;;;;;;;3.37;1.87;;;;;;;;;;5046814;28;20673;-78
2023/03/13 09:39:58;;;;;;;2.63;1.60;;;;;;;;;;5050098;28;20203;-78
2023/03/13 09:42:29;;;;;;;2.27;1.50;;;;;;;;;;5037831;28;20794;-78
2023/03/13 09:44:59;;;;;;;3.40;1.80;;;;;;;;;;5051879;28;20259;-78
2023/03/13 09:47:45;;;;;;;5.13;1.97;;;;;;;;;;5050615;28;20244;-78
2023/03/13 09:50:14;;;;;;;3.50;1.53;;;;;;;;;;5042696;28;20193;-78
2023/03/13 09:52:41;;;;;;;1.50;1.40;;;;;;;;;;5051489;28;20242;-78
2023/03/13 09:55:20;;;;;;;2.27;1.70;;;;;;;;;;5047987;28;20213;-78
2023/03/13 09:57:57;;;;;;;4.70;1.40;;;;;;;;;;5052366;28;20182;-78
2023/03/13 10:00:35;;;;;;;2.57;1.60;;;;;;;;;;5034531;28;20267;-78
2023/03/13 10:03:07;;;;;;;6.20;4.43;;;;;;;;;;5042556;28;20209;-78
2023/03/13 10:05:34;;;;;;;2.53;1.83;;;;;;;;;;5024603;28;20183;-78
2023/03/13 10:08:08;;;;;;;1.60;1.50;;;;;;;;;;5044770;28;20214;-78
2023/03/13 10:10:39;;;;;;;1.80;1.33;;;;;;;;;;5050279;28;20185;-78
2023/03/13 10:13:35;;;;;;;1.37;1.23;;;;;;;;;;5027810;28;20244;-78
2023/03/13 10:16:04;;;;;;;2.80;1.50;;;;;;;;;;5026539;28;20201;-78
2023/03/13 10:18:32;;;;;;;2.33;1.47;;;;;;;;;;5036639;28;20178;-78
2023/03/13 10:20:59;;;;;;;2.63;1.50;;;;;;;;;;5049254;28;20189;-78
2023/03/13 10:23:46;;;;;;;2.50;1.60;;;;;;;;;;5049233;28;20297;-78
2023/03/13 10:26:26;;;;;;;2.47;1.53;;;;;;;;;;5025682;28;20194;-78
2023/03/13 10:28:53;;;;;;;2.83;1.70;;;;;;;;;;5037796;28;20190;-79
2023/03/13 10:31:32;;;;;;;1.47;1.20;;;;;;;;;;5051166;28;20193;-81
2023/03/13 10:34:08;;;;;;;3.40;1.90;;;;;;;;;;5051188;28;20209;-78
2023/03/13 10:36:48;;;;;;;3.20;1.70;;;;;;;;;;5049948;28;20182;-78
2023/03/13 10:39:19;;;;;;;4.23;1.70;;;;;;;;;;5051031;28;20182;-78
2023/03/13 10:41:45;;;;;;;2.27;1.70;;;;;;;;;;5034607;28;20197;-78
2023/03/13 10:44:16;;;;;;;2.43;1.73;;;;;;;;;;5048457;28;20218;-78
2023/03/13 10:46:43;;;;;;;1.80;1.60;;;;;;;;;;5044405;28;20254;-78
2023/03/13 10:49:18;;;;;;;3.50;1.80;;;;;;;;;;5040487;28;20178;-78
2023/03/13 10:51:47;;;;;;;1.77;1.50;;;;;;;;;;5048954;28;20193;-78
2023/03/13 10:54:15;;;;;;;2.40;1.60;;;;;;;;;;5041366;28;20564;-78
2023/03/13 10:56:41;;;;;;;3.50;1.80;;;;;;;;;;5047367;28;20743;-79
2023/03/13 10:59:20;;;;;;;3.13;2.10;;;;;;;;;;5048885;28;20197;-78
2023/03/13 11:01:47;;;;;;;3.53;1.90;;;;;;;;;;5047427;28;20182;-78
2023/03/13 11:04:39;;;;;;;4.17;1.70;;;;;;;;;;5034342;28;20217;-78
2023/03/13 11:07:20;;;;;;;2.97;1.83;;;;;;;;;;5031966;28;20186;-77
2023/03/13 11:09:58;;;;;;;1.87;1.60;;;;;;;;;;5044347;28;20178;-77
2023/03/13 11:12:24;;;;;;;3.07;1.67;;;;;;;;;;5051247;28;20192;-77
2023/03/13 11:14:56;;;;;;;3.63;1.60;;;;;;;;;;5036626;28;20210;-78
2023/03/13 11:17:34;;;;;;;4.23;2.00;;;;;;;;;;5045972;28;20650;-78
2023/03/13 11:20:00;;;;;;;6.00;2.07;;;;;;;;;;5060533;28;20224;-78
2023/03/13 11:22:45;;;;;;;2.80;2.03;;;;;;;;;;5050223;28;20278;-78
2023/03/13 11:25:18;;;;;;;8.03;2.63;;;;;;;;;;5034443;28;20186;-78
2023/03/13 11:28:02;;;;;;;6.43;2.47;;;;;;;;;;5041428;28;20202;-78
2023/03/13 11:30:44;;;;;;;3.97;2.00;;;;;;;;;;5044374;28;20842;-78
2023/03/13 11:33:29;;;;;;;3.10;1.87;;;;;;;;;;5049578;28;20236;-78
2023/03/13 11:36:00;;;;;;;2.13;1.70;;;;;;;;;;5050740;28;20190;-77
2023/03/13 11:38:37;;;;;;;2.67;1.80;;;;;;;;;;5044727;28;20189;-78
2023/03/13 11:41:04;;;;;;;2.97;1.83;;;;;;;;;;5050725;28;20189;-78
2023/03/13 11:43:33;;;;;;;2.77;1.80;;;;;;;;;;5049479;28;20240;-78
2023/03/13 11:46:07;;;;;;;4.43;1.93;;;;;;;;;;5042222;28;20248;-78
2023/03/13 11:48:55;;;;;;;2.83;1.90;;;;;;;;;;5035785;28;20845;-78
2023/03/13 11:51:27;;;;;;;2.77;1.60;;;;;;;;;;5053540;28;20193;-78
2023/03/13 11:54:04;;;;;;;3.17;1.83;;;;;;;;;;5039817;28;20703;-77
2023/03/13 11:56:36;;;;;;;2.60;1.70;;;;;;;;;;5052560;28;20186;-78
2023/03/13 11:59:02;;;;;;;2.47;1.73;;;;;;;;;;5048397;28;20635;-78
2023/03/13 12:01:37;;;;;;;2.97;1.83;;;;;;;;;;5048154;28;20212;-78
2023/03/13 12:04:21;;;;;;;2.10;1.60;;;;;;;;;;5046946;28;20619;-79
2023/03/13 12:07:12;;;;;;;4.00;1.70;;;;;;;;;;5060437;28;20177;-78
2023/03/13 12:09:44;;;;;;;2.17;1.63;;;;;;;;;;5053213;28;20178;-80
2023/03/13 12:12:20;;;;;;;4.73;1.93;;;;;;;;;;5049411;28;20582;-73
2023/03/13 12:14:51;;;;;;;2.03;1.53;;;;;;;;;;5042308;28;20206;-78
2023/03/13 12:17:29;;;;;;;2.77;1.63;;;;;;;;;;5052964;28;20209;-76
2023/03/13 12:20:06;;;;;;;4.30;2.00;;;;;;;;;;5047272;28;20186;-76
2023/03/13 12:22:37;;;;;;;1.80;1.70;;;;;;;;;;5043800;28;20249;-76
2023/03/13 12:25:14;;;;;;;5.03;1.73;;;;;;;;;;5031102;28;20181;-76
2023/03/13 12:27:49;;;;;;;2.80;1.67;;;;;;;;;;5054314;28;20720;-75
2023/03/13 12:30:22;;;;;;;3.37;1.83;;;;;;;;;;5041988;28;20243;-75
2023/03/13 12:33:03;;;;;;;1.97;1.53;;;;;;;;;;5043696;28;20186;-78
2023/03/13 12:35:33;;;;;;;21.63;1.90;;;;;;;;;;5049015;28;20700;-78
2023/03/13 12:38:18;;;;;;;5.50;2.00;;;;;;;;;;5041248;28;20187;-78
2023/03/13 12:40:44;;;;;;;2.50;1.50;;;;;;;;;;5046140;28;20194;-78
2023/03/13 12:43:23;;;;;;;1.63;1.53;;;;;;;;;;5055307;28;20259;-74
2023/03/13 12:46:01;;;;;;;3.30;1.77;;;;;;;;;;5043307;28;20568;-77
2023/03/13 12:48:46;;;;;;;3.37;1.90;;;;;;;;;;5048992;28;20185;-77
2023/03/13 12:51:23;;;;;;;2.83;1.70;;;;;;;;;;5050222;28;20189;-77
2023/03/13 12:53:49;;;;;;;2.13;1.70;;;;;;;;;;5050675;28;20306;-77
2023/03/13 12:56:45;;;;;;;2.57;1.70;;;;;;;;;;5051585;28;20186;-77
2023/03/13 12:59:27;;;;;;;3.37;2.00;;;;;;;;;;5038188;28;20205;-77
2023/03/13 13:01:57;;;;;;;3.03;2.00;;;;;;;;;;5052267;28;20276;-78
2023/03/13 13:04:25;;;;;;;2.53;1.83;;;;;;;;;;5047899;28;20249;-77
2023/03/13 13:07:18;;;;;;;2.20;1.70;;;;;;;;;;5049974;28;20185;-77
2023/03/13 13:10:03;;;;;;;1.90;1.60;;;;;;;;;;5052658;28;20186;-78
2023/03/13 13:12:29;;;;;;;2.67;1.97;;;;;;;;;;5049069;28;20186;-77
2023/03/13 13:14:57;;;;;;;2.60;1.90;;;;;;;;;;5049290;28;20657;-78
2023/03/13 13:17:29;;;;;;;2.67;1.97;;;;;;;;;;5051372;28;20231;-77
2023/03/13 13:19:56;;;;;;;2.50;1.80;;;;;;;;;;5048920;28;20186;-77
2023/03/13 13:22:37;;;;;;;2.20;1.80;;;;;;;;;;5049658;28;20272;-77
2023/03/13 13:25:09;;;;;;;3.23;1.50;;;;;;;;;;5050679;28;20178;-77
2023/03/13 13:27:35;;;;;;;2.63;1.60;;;;;;;;;;5046265;28;20257;-77
2023/03/13 13:30:03;;;;;;;4.20;1.63;;;;;;;;;;5050624;28;20247;-77
2023/03/13 13:32:38;;;;;;;3.73;1.53;;;;;;;;;;5051786;28;20235;-78
2023/03/13 13:35:05;;;;;;;4.17;1.97;;;;;;;;;;5043093;28;20221;-77
2023/03/13 13:37:32;;;;;;;1.70;1.53;;;;;;;;;;5050499;28;20598;-77
2023/03/13 13:40:13;;;;;;;2.13;1.30;;;;;;;;;;5051655;28;20185;-77
2023/03/13 13:42:47;;;;;;;3.40;1.53;;;;;;;;;;5044952;28;20216;-77
2023/03/13 13:45:15;;;;;;;1.37;1.27;;;;;;;;;;5052103;28;20702;-77
2023/03/13 13:47:43;;;;;;;1.77;1.53;;;;;;;;;;5050392;28;20178;-80
2023/03/13 13:50:20;;;;;;;1.70;1.60;;;;;;;;;;5033687;28;20294;-78
2023/03/13 13:52:47;;;;;;;2.73;1.60;;;;;;;;;;5038356;28;20649;-75
2023/03/13 13:55:25;;;;;;;3.00;1.40;;;;;;;;;;5065577;28;20185;-76
2023/03/13 13:57:58;;;;;;;2.93;1.47;;;;;;;;;;5051889;28;20274;-77
2023/03/13 14:00:26;;;;;;;2.43;1.53;;;;;;;;;;5051877;28;20205;-77
2023/03/13 14:02:53;;;;;;;2.13;1.67;;;;;;;;;;5047334;28;20538;-77
2023/03/13 14:05:21;;;;;;;3.67;1.53;;;;;;;;;;5049674;28;20193;-77
2023/03/13 14:07:56;;;;;;;2.00;1.80;;;;;;;;;;5050368;28;20233;-77
2023/03/13 14:10:49;;;;;;;1.60;1.50;;;;;;;;;;5047785;28;20183;-77
2023/03/13 14:13:16;;;;;;;3.33;1.43;;;;;;;;;;5021742;28;20245;-77
2023/03/13 14:15:44;;;;;;;1.70;1.40;;;;;;;;;;5046460;28;20180;-77
2023/03/13 14:18:19;;;;;;;2.53;1.50;;;;;;;;;;5050444;28;20180;-77
2023/03/13 14:20:57;;;;;;;2.33;1.33;;;;;;;;;;5044949;28;20195;-78
2023/03/13 14:23:41;;;;;;;3.07;1.57;;;;;;;;;;5012265;28;20219;-77
2023/03/13 14:26:11;;;;;;;2.57;1.50;;;;;;;;;;5038435;28;20526;-77
2023/03/13 14:28:39;;;;;;;2.60;1.50;;;;;;;;;;5042149;28;20178;-77
2023/03/13 14:31:06;;;;;;;1.70;1.50;;;;;;;;;;5045768;28;20224;-77
2023/03/13 14:33:33;;;;;;;2.97;1.50;;;;;;;;;;5046750;28;20248;-77
2023/03/13 14:35:59;;;;;;;3.43;1.73;;;;;;;;;;5049527;28;20178;-77
2023/03/13 14:38:26;;;;;;;2.60;1.40;;;;;;;;;;5049833;28;20189;-78
2023/03/13 14:40:54;;;;;;;2.70;1.40;;;;;;;;;;5048687;28;20183;-78
2023/03/13 14:43:37;;;;;;;2.40;1.60;;;;;;;;;;5044057;28;20203;-77
2023/03/13 14:46:14;;;;;;;2.30;1.67;;;;;;;;;;5063253;28;20195;-77
2023/03/13 14:48:40;;;;;;;2.03;1.50;;;;;;;;;;5049030;28;20209;-77
2023/03/13 14:51:11;;;;;;;6.17;1.80;;;;;;;;;;5059359;28;20224;-77
2023/03/13 14:53:37;;;;;;;1.80;1.53;;;;;;;;;;5043513;28;20203;-77
2023/03/13 14:56:12;;;;;;;3.00;1.37;;;;;;;;;;5046919;28;20185;-77
2023/03/13 14:58:38;;;;;;;3.37;1.80;;;;;;;;;;5048739;28;20187;-77
2023/03/13 15:01:14;;;;;;;2.63;1.60;;;;;;;;;;5049786;28;20183;-78
2023/03/13 15:03:45;;;;;;;2.13;1.43;;;;;;;;;;5014925;28;20232;-77
2023/03/13 15:06:11;;;;;;;1.90;1.50;;;;;;;;;;5050113;28;20179;-77